createdAt,value
2024-01-05T00:00:30.908Z,100611.86
2024-01-05T00:03:02.013Z,100615.59
2024-01-05T00:05:30.097Z,100607.31
2024-01-05T00:07:57.973Z,100607.09
2024-01-05T00:10:25.962Z,100601.10
2024-01-05T00:12:53.906Z,100589.85
2024-01-05T00:15:22.460Z,100576.70
2024-01-05T00:17:50.535Z,100582.04
2024-01-05T00:20:18.748Z,100571.84
2024-01-05T00:22:46.745Z,100571.48
2024-01-05T00:25:14.743Z,100567.84
2024-01-05T00:27:42.678Z,100564.57
2024-01-05T00:30:11.511Z,100544.40
2024-01-05T00:32:39.741Z,100544.85
2024-01-05T00:35:08.320Z,100545.18
2024-01-05T00:37:36.388Z,100556.98
2024-01-05T00:40:05.513Z,100540.77
2024-01-05T00:42:33.565Z,100545.05
2024-01-05T00:45:01.718Z,100531.25
2024-01-05T00:47:29.739Z,100545.45
2024-01-05T00:49:57.749Z,100566.86
2024-01-05T00:52:25.698Z,100572.52
2024-01-05T00:54:53.748Z,100565.59
2024-01-05T00:57:21.685Z,100562.77
2024-01-05T00:59:49.672Z,100575.13
2024-01-05T01:02:17.765Z,100568.53
2024-01-05T01:04:45.785Z,100572.72
2024-01-05T01:07:13.781Z,100591.06
2024-01-05T01:09:41.794Z,100574.97
2024-01-05T01:12:09.766Z,100569.31
2024-01-05T01:14:37.662Z,100558.00
2024-01-05T01:17:05.671Z,100552.77
2024-01-05T01:19:33.711Z,100558.20
2024-01-05T01:22:01.828Z,100547.44
2024-01-05T01:24:30.204Z,100550.16
2024-01-05T01:26:58.195Z,100559.11
2024-01-05T01:29:27.538Z,100558.30
2024-01-05T01:31:55.529Z,100557.51
2024-01-05T01:34:23.752Z,100553.45
2024-01-05T01:36:53.596Z,100551.66
2024-01-05T01:39:21.616Z,100557.18
2024-01-05T01:41:49.643Z,100550.74
2024-01-05T01:44:17.633Z,100539.07
2024-01-05T01:46:45.636Z,100538.84
2024-01-05T01:49:14.699Z,100523.80
2024-01-05T01:51:43.384Z,100531.71
2024-01-05T01:54:12.034Z,100528.21
2024-01-05T01:56:41.269Z,100541.65
2024-01-05T01:59:09.993Z,100535.57
2024-01-05T02:01:38.138Z,100532.73
2024-01-05T02:04:06.740Z,100523.80
2024-01-05T02:06:35.634Z,100518.80
2024-01-05T02:09:03.604Z,100520.69
2024-01-05T02:11:31.572Z,100523.30
2024-01-05T02:13:59.822Z,100515.03
2024-01-05T02:16:27.822Z,100517.19
2024-01-05T02:18:55.876Z,100511.73
2024-01-05T02:21:31.876Z,100516.96
2024-01-05T02:24:00.268Z,100517.75
2024-01-05T02:26:28.686Z,100506.62
2024-01-05T02:28:56.659Z,100515.91
2024-01-05T02:31:24.702Z,100505.62
2024-01-05T02:33:52.921Z,100504.14
2024-01-05T02:36:20.981Z,100503.69
2024-01-05T02:38:48.965Z,100503.49
2024-01-05T02:41:16.897Z,100506.76
2024-01-05T02:43:44.851Z,100498.84
2024-01-05T02:46:12.888Z,100492.47
2024-01-05T02:48:41.081Z,100484.33
2024-01-05T02:51:09.316Z,100470.63
2024-01-05T02:53:37.681Z,100488.19
2024-01-05T02:56:05.855Z,100498.16
2024-01-05T02:58:33.885Z,100520.27
2024-01-05T03:01:01.877Z,100508.82
2024-01-05T03:03:29.986Z,100507.35
2024-01-05T03:05:58.077Z,100498.84
2024-01-05T03:08:26.035Z,100497.93
2024-01-05T03:10:53.998Z,100492.27
2024-01-05T03:13:21.927Z,100491.03
2024-01-05T03:15:49.908Z,100481.74
2024-01-05T03:18:18.026Z,100488.41
2024-01-05T03:20:46.032Z,100477.33
2024-01-05T03:23:14.049Z,100468.50
2024-01-05T03:25:42.029Z,100461.14
2024-01-05T03:28:09.983Z,100465.07
2024-01-05T03:30:38.041Z,100454.90
2024-01-05T03:33:06.475Z,100459.18
2024-01-05T03:35:34.506Z,100460.42
2024-01-05T03:38:02.619Z,100456.01
2024-01-05T03:40:30.553Z,100458.40
2024-01-05T03:42:58.851Z,100444.37
2024-01-05T03:45:26.932Z,100450.35
2024-01-05T03:47:54.943Z,100456.70
2024-01-05T03:50:22.918Z,100457.80
2024-01-05T03:52:51.005Z,100448.88
2024-01-05T03:55:19.204Z,100440.70
2024-01-05T03:57:47.381Z,100427.00
2024-01-05T04:00:15.650Z,100432.66
2024-01-05T04:02:43.721Z,100430.54
2024-01-05T04:05:11.765Z,100424.75
2024-01-05T04:07:40.965Z,100418.93
2024-01-05T04:10:09.408Z,100420.50
2024-01-05T04:12:37.437Z,100412.16
2024-01-05T04:15:06.718Z,100403.98
2024-01-05T04:17:34.704Z,100409.18
2024-01-05T04:20:02.744Z,100400.22
2024-01-05T04:22:33.521Z,100384.04
2024-01-05T04:25:01.731Z,100400.91
2024-01-05T04:27:29.827Z,100395.91
2024-01-05T04:29:57.867Z,100399.08
2024-01-05T04:32:26.492Z,100403.16
2024-01-05T04:34:54.811Z,100395.58
2024-01-05T04:37:22.696Z,100386.75
2024-01-05T04:39:51.774Z,100385.51
2024-01-05T04:42:19.904Z,100389.43
2024-01-05T04:44:48.021Z,100393.42
2024-01-05T04:47:15.946Z,100400.98
2024-01-05T04:49:44.097Z,100396.01
2024-01-05T04:52:12.231Z,100390.05
2024-01-05T04:54:40.218Z,100386.45
2024-01-05T04:57:08.236Z,100386.45
2024-01-05T04:59:36.556Z,100389.07
2024-01-05T05:02:04.609Z,100392.24
2024-01-05T05:04:32.525Z,100385.31
2024-01-05T05:07:05.498Z,100393.81
2024-01-05T05:09:33.618Z,100386.00
2024-01-05T05:12:01.638Z,100380.99
2024-01-05T05:14:29.583Z,100381.42
2024-01-05T05:16:57.608Z,100380.87
2024-01-05T05:19:25.829Z,100390.51
2024-01-05T05:21:53.841Z,100397.61
2024-01-05T05:24:21.865Z,100390.55
2024-01-05T05:26:49.901Z,100399.41
2024-01-05T05:29:17.889Z,100388.84
2024-01-05T05:31:46.184Z,100384.88
2024-01-05T05:34:14.383Z,100383.97
2024-01-05T05:36:42.442Z,100390.18
2024-01-05T05:39:12.222Z,100388.48
2024-01-05T05:41:40.176Z,100385.51
2024-01-05T05:44:08.162Z,100380.73
2024-01-05T05:46:36.211Z,100391.30
2024-01-05T05:49:04.423Z,100394.14
2024-01-05T05:51:35.730Z,100412.62
2024-01-05T05:54:04.826Z,100405.36
2024-01-05T05:56:32.816Z,100405.00
2024-01-05T05:59:00.835Z,100394.14
2024-01-05T06:01:28.896Z,100397.73
2024-01-05T06:03:57.491Z,100406.93
2024-01-05T06:06:26.134Z,100414.05
2024-01-05T06:08:54.186Z,100403.82
2024-01-05T06:11:22.223Z,100411.54
2024-01-05T06:13:50.447Z,100413.79
2024-01-05T06:16:18.508Z,100408.10
2024-01-05T06:18:46.683Z,100402.45
2024-01-05T06:21:14.853Z,100401.53
2024-01-05T06:23:43.015Z,100408.79
2024-01-05T06:26:11.037Z,100409.45
2024-01-05T06:28:41.101Z,100410.06
2024-01-05T06:31:09.258Z,100403.49
2024-01-05T06:33:37.413Z,100392.80
2024-01-05T06:36:05.799Z,100405.26
2024-01-05T06:38:33.696Z,100400.52
2024-01-05T06:41:02.999Z,100409.18
2024-01-05T06:43:30.979Z,100400.35
2024-01-05T06:45:58.982Z,100397.02
2024-01-05T06:48:27.075Z,100399.21
2024-01-05T06:50:55.241Z,100388.78
2024-01-05T06:53:23.230Z,100381.68
2024-01-05T06:55:51.207Z,100381.32
2024-01-05T06:58:19.458Z,100389.30
2024-01-05T07:00:47.541Z,100386.91
2024-01-05T07:03:15.576Z,100395.45
2024-01-05T07:05:43.896Z,100393.52
2024-01-05T07:08:12.344Z,100399.08
2024-01-05T07:10:40.334Z,100394.20
2024-01-05T07:13:11.563Z,100399.60
2024-01-05T07:15:39.527Z,100388.58
2024-01-05T07:18:08.746Z,100400.71
2024-01-05T07:20:36.794Z,100403.23
2024-01-05T07:23:04.810Z,100397.45
2024-01-05T07:25:32.780Z,100391.88
2024-01-05T07:28:00.776Z,100394.24
2024-01-05T07:30:28.863Z,100392.08
2024-01-05T07:32:57.329Z,100386.29
2024-01-05T07:35:25.428Z,100382.04
2024-01-05T07:37:53.493Z,100382.89
2024-01-05T07:40:21.402Z,100382.89
2024-01-05T07:42:52.050Z,100379.30
2024-01-05T07:45:20.233Z,100374.09
2024-01-05T07:47:50.426Z,100380.87
2024-01-05T07:50:18.360Z,100376.32
2024-01-05T07:52:46.371Z,100372.23
2024-01-05T07:55:14.564Z,100375.63
2024-01-05T07:57:44.792Z,100371.48
2024-01-05T08:00:14.824Z,100364.02
2024-01-05T08:02:42.837Z,100379.63
2024-01-05T08:05:13.726Z,100377.59
2024-01-05T08:07:41.888Z,100377.43
2024-01-05T08:10:10.013Z,100376.97
2024-01-05T08:12:38.149Z,100359.34
2024-01-05T08:15:06.791Z,100361.11
2024-01-05T08:17:34.894Z,100360.03
2024-01-05T08:20:02.899Z,100356.27
2024-01-05T08:22:30.940Z,100354.73
2024-01-05T08:24:58.888Z,100360.30
2024-01-05T08:27:26.914Z,100363.11
2024-01-05T08:29:54.950Z,100353.66
2024-01-05T08:32:22.991Z,100352.58
2024-01-05T08:34:51.268Z,100344.08
2024-01-05T08:37:19.305Z,100341.27
2024-01-05T08:39:47.328Z,100341.30
2024-01-05T08:42:16.265Z,100342.73
2024-01-05T08:44:44.322Z,100341.66
2024-01-05T08:47:12.208Z,100346.53
2024-01-05T08:49:40.200Z,100339.30
2024-01-05T08:52:08.438Z,100342.80
2024-01-05T08:54:36.797Z,100342.02
2024-01-05T08:57:07.674Z,100339.11
2024-01-05T08:59:39.161Z,100344.01
2024-01-05T09:02:08.415Z,100334.10
2024-01-05T09:04:36.321Z,100329.03
2024-01-05T09:07:04.477Z,100328.41
2024-01-05T09:09:32.805Z,100339.30
2024-01-05T09:12:01.671Z,100344.05
2024-01-05T09:14:29.864Z,100355.42
2024-01-05T09:16:57.889Z,100351.47
2024-01-05T09:19:26.552Z,100352.71
2024-01-05T09:21:54.846Z,100364.09
2024-01-05T09:24:22.901Z,100358.40
2024-01-05T09:26:50.921Z,100355.06
2024-01-05T09:29:18.980Z,100364.71
2024-01-05T09:31:50.494Z,100370.70
2024-01-05T09:34:19.635Z,100367.55
2024-01-05T09:36:47.859Z,100362.32
2024-01-05T09:39:16.067Z,100374.48
2024-01-05T09:41:44.813Z,100365.98
2024-01-05T09:44:14.167Z,100369.62
2024-01-05T09:46:43.264Z,100372.30
2024-01-05T09:49:12.459Z,100379.55
2024-01-05T09:51:40.536Z,100389.17
2024-01-05T09:54:08.960Z,100391.06
2024-01-05T09:56:37.493Z,100385.05
2024-01-05T09:59:06.749Z,100375.30
2024-01-05T10:01:36.953Z,100385.70
2024-01-05T10:04:05.432Z,100380.05
2024-01-05T10:06:33.713Z,100367.72
2024-01-05T10:09:01.915Z,100371.67
2024-01-05T10:11:45.083Z,100360.00
2024-01-05T10:14:16.297Z,100359.51
2024-01-05T10:16:44.179Z,100356.53
2024-01-05T10:19:14.291Z,100353.98
2024-01-05T10:21:43.797Z,100353.07
2024-01-05T10:24:25.195Z,100352.77
2024-01-05T10:27:07.366Z,100352.41
2024-01-05T10:29:40.363Z,100349.57
2024-01-05T10:32:15.287Z,100333.48
2024-01-05T10:34:45.153Z,100336.03
2024-01-05T10:37:13.963Z,100324.33
2024-01-05T10:39:59.222Z,100333.84
2024-01-05T10:42:31.257Z,100349.34
2024-01-05T10:45:00.982Z,100348.39
2024-01-05T10:47:33.552Z,100340.48
2024-01-05T10:50:01.965Z,100334.49
2024-01-05T10:52:34.521Z,100337.96
2024-01-05T10:55:06.328Z,100334.17
2024-01-05T10:57:38.656Z,100327.98
2024-01-05T11:00:11.866Z,100341.92
2024-01-05T11:02:43.264Z,100334.33
2024-01-05T11:05:16.183Z,100339.86
2024-01-05T11:07:45.167Z,100334.46
2024-01-05T11:10:21.838Z,100332.08
2024-01-05T11:13:05.021Z,100333.02
2024-01-05T11:15:50.956Z,100333.19
2024-01-05T11:18:57.138Z,100335.37
2024-01-05T11:21:38.593Z,100336.49
2024-01-05T11:24:07.186Z,100328.25
2024-01-05T11:26:38.049Z,100322.56
2024-01-05T11:29:06.155Z,100320.50
2024-01-05T11:31:49.544Z,100316.25
2024-01-05T11:34:37.867Z,100318.77
2024-01-05T11:37:09.683Z,100299.51
2024-01-05T11:39:55.973Z,100306.47
2024-01-05T11:42:27.042Z,100311.05
2024-01-05T11:44:55.465Z,100312.95
2024-01-05T11:47:46.205Z,100310.88
2024-01-05T11:50:26.632Z,100316.28
2024-01-05T11:53:13.608Z,100315.95
2024-01-05T11:55:48.949Z,100315.34
2024-01-05T11:58:21.034Z,100303.33
2024-01-05T12:00:53.156Z,100302.52
2024-01-05T12:03:23.129Z,100305.06
2024-01-05T12:05:55.187Z,100298.27
2024-01-05T12:08:26.424Z,100296.70
2024-01-05T12:11:06.322Z,100285.67
2024-01-05T12:13:35.867Z,100293.39
2024-01-05T12:16:09.112Z,100290.55
2024-01-05T12:18:50.989Z,100294.66
2024-01-05T12:21:22.060Z,100298.33
2024-01-05T12:23:57.463Z,100286.95
2024-01-05T12:26:27.139Z,100293.39
2024-01-05T12:28:56.117Z,100297.05
2024-01-05T12:31:24.705Z,100292.45
2024-01-05T12:33:54.507Z,100284.40
2024-01-05T12:36:30.591Z,100286.13
2024-01-05T12:39:14.077Z,100290.38
2024-01-05T12:41:45.064Z,100287.05
2024-01-05T12:44:13.165Z,100287.24
2024-01-05T12:46:48.769Z,100289.44
2024-01-05T12:49:25.108Z,100283.29
2024-01-05T12:51:55.184Z,100290.05
2024-01-05T12:54:24.047Z,100283.71
2024-01-05T12:56:56.710Z,100276.29
2024-01-05T12:59:26.106Z,100281.98
2024-01-05T13:02:05.024Z,100279.30
2024-01-05T13:04:40.415Z,100280.05
2024-01-05T13:07:13.235Z,100283.26
2024-01-05T13:09:41.451Z,100284.30
2024-01-05T13:12:09.836Z,100275.30
2024-01-05T13:14:37.840Z,100271.65
2024-01-05T13:17:08.606Z,100277.70
2024-01-05T13:19:38.562Z,100276.09
2024-01-05T13:22:11.878Z,100280.38
2024-01-05T13:24:43.314Z,100286.39
2024-01-05T13:27:14.363Z,100278.84
2024-01-05T13:29:42.509Z,100287.38
2024-01-05T13:32:10.607Z,100287.18
2024-01-05T13:34:38.708Z,100283.38
2024-01-05T13:37:06.820Z,100285.91
2024-01-05T13:39:38.294Z,100282.60
2024-01-05T13:42:06.544Z,100290.68
2024-01-05T13:44:34.489Z,100285.15
2024-01-05T13:47:02.492Z,100282.89
2024-01-05T13:49:35.201Z,100279.13
2024-01-05T13:52:03.346Z,100277.37
2024-01-05T13:54:35.575Z,100289.08
2024-01-05T13:57:04.620Z,100290.94
2024-01-05T13:59:32.674Z,100295.06
2024-01-05T14:02:00.722Z,100297.41
2024-01-05T14:04:28.681Z,100296.47
2024-01-05T14:06:56.883Z,100297.55
2024-01-05T14:09:25.175Z,100303.07
2024-01-05T14:11:53.196Z,100293.26
2024-01-05T14:14:21.211Z,100304.34
2024-01-05T14:16:49.272Z,100298.82
2024-01-05T14:19:17.307Z,100301.20
2024-01-05T14:21:46.451Z,100287.93
2024-01-05T14:24:14.470Z,100300.39
2024-01-05T14:26:42.721Z,100301.99
2024-01-05T14:29:10.585Z,100295.52
2024-01-05T14:31:38.573Z,100294.70
2024-01-05T14:34:07.099Z,100304.84
2024-01-05T14:36:35.115Z,100300.72
2024-01-05T14:39:03.314Z,100308.47
2024-01-05T14:41:31.225Z,100305.00
2024-01-05T14:43:59.381Z,100310.85
2024-01-05T14:46:27.542Z,100299.34
2024-01-05T14:48:56.518Z,100308.86
2024-01-05T14:51:25.602Z,100296.70
2024-01-05T14:53:57.019Z,100299.38
2024-01-05T14:56:25.114Z,100297.64
2024-01-05T14:58:53.245Z,100298.30
2024-01-05T15:01:21.737Z,100308.23
2024-01-05T15:03:50.216Z,100306.05
2024-01-05T15:06:18.326Z,100298.16
2024-01-05T15:08:47.297Z,100295.95
2024-01-05T15:11:22.253Z,100297.67
2024-01-05T15:13:51.061Z,100296.10
2024-01-05T15:16:19.138Z,100294.21
2024-01-05T15:18:47.476Z,100300.23
2024-01-05T15:21:24.803Z,100308.73
2024-01-05T15:23:53.150Z,100299.60
2024-01-05T15:26:21.145Z,100293.09
2024-01-05T15:28:49.095Z,100292.77
2024-01-05T15:31:21.816Z,100294.50
2024-01-05T15:33:53.370Z,100296.07
2024-01-05T15:36:26.157Z,100300.68
2024-01-05T15:38:57.022Z,100297.84
2024-01-05T15:41:26.234Z,100299.87
2024-01-05T15:43:57.844Z,100300.81
2024-01-05T15:46:28.301Z,100295.91
2024-01-05T15:48:57.540Z,100299.08
2024-01-05T15:51:27.806Z,100299.41
2024-01-05T15:53:58.474Z,100290.88
2024-01-05T15:56:29.530Z,100283.94
2024-01-05T15:58:57.527Z,100282.83
2024-01-05T16:01:25.484Z,100277.14
2024-01-05T16:03:53.596Z,100280.12
2024-01-05T16:06:22.384Z,100285.80
2024-01-05T16:08:50.852Z,100278.55
2024-01-05T16:11:18.950Z,100279.82
2024-01-05T16:13:49.429Z,100272.85
2024-01-05T16:16:21.591Z,100267.98
2024-01-05T16:18:53.656Z,100274.13
2024-01-05T16:21:32.590Z,100260.73
2024-01-05T16:24:04.125Z,100258.66
2024-01-05T16:26:32.263Z,100254.70
2024-01-05T16:29:00.352Z,100257.39
2024-01-05T16:31:28.700Z,100259.16
2024-01-05T16:33:56.951Z,100247.12
2024-01-05T16:36:28.097Z,100252.05
2024-01-05T16:38:56.371Z,100257.39
2024-01-05T16:41:26.282Z,100257.87
2024-01-05T16:43:54.696Z,100253.92
2024-01-05T16:46:23.633Z,100253.10
2024-01-05T16:48:55.446Z,100253.92
2024-01-05T16:51:24.303Z,100263.41
2024-01-05T16:53:53.284Z,100252.02
2024-01-05T16:56:27.099Z,100264.16
2024-01-05T16:58:55.864Z,100257.23
2024-01-05T17:01:27.433Z,100259.61
2024-01-05T17:04:00.292Z,100250.13
2024-01-05T17:06:28.523Z,100254.87
2024-01-05T17:09:00.090Z,100263.24
2024-01-05T17:11:36.363Z,100261.18
2024-01-05T17:14:04.592Z,100254.70
2024-01-05T17:16:33.153Z,100255.03
2024-01-05T17:19:02.798Z,100256.60
2024-01-05T17:21:30.880Z,100259.91
2024-01-05T17:23:58.930Z,100254.25
2024-01-05T17:26:28.352Z,100255.49
2024-01-05T17:28:57.321Z,100263.57
2024-01-05T17:31:25.456Z,100261.18
2024-01-05T17:33:53.789Z,100273.34
2024-01-05T17:36:29.105Z,100262.75
2024-01-05T17:38:58.749Z,100259.61
2024-01-05T17:41:27.104Z,100270.99
2024-01-05T17:43:55.130Z,100264.02
2024-01-05T17:46:23.162Z,100267.98
2024-01-05T17:48:53.984Z,100276.81
2024-01-05T17:51:22.193Z,100268.60
2024-01-05T17:53:50.953Z,100269.42
2024-01-05T17:56:24.811Z,100276.16
2024-01-05T17:58:52.851Z,100280.12
2024-01-05T18:01:20.994Z,100280.12
2024-01-05T18:03:49.208Z,100276.02
2024-01-05T18:06:17.364Z,100275.57
2024-01-05T18:08:45.437Z,100264.48
2024-01-05T18:11:23.483Z,100275.41
2024-01-05T18:13:55.560Z,100282.66
2024-01-05T18:16:27.705Z,100284.23
2024-01-05T18:18:56.895Z,100289.92
2024-01-05T18:21:30.123Z,100294.34
2024-01-05T18:24:01.737Z,100299.44
2024-01-05T18:26:29.897Z,100313.80
2024-01-05T18:29:01.413Z,100311.90
2024-01-05T18:31:33.488Z,100316.15
2024-01-05T18:34:02.425Z,100309.52
2024-01-05T18:36:30.924Z,100312.69
2024-01-05T18:38:59.524Z,100315.86
2024-01-05T18:41:33.277Z,100307.78
2024-01-05T18:44:06.678Z,100314.25
2024-01-05T18:46:34.639Z,100304.15
2024-01-05T18:49:03.280Z,100306.99
2024-01-05T18:51:31.277Z,100312.69
2024-01-05T18:53:59.274Z,100311.08
2024-01-05T18:56:30.216Z,100302.91
2024-01-05T18:58:58.353Z,100304.94
2024-01-05T19:01:26.344Z,100301.63
2024-01-05T19:03:54.492Z,100301.30
2024-01-05T19:06:23.199Z,100301.30
2024-01-05T19:08:51.259Z,100311.90
2024-01-05T19:11:22.036Z,100298.16
2024-01-05T19:13:49.963Z,100297.38
2024-01-05T19:16:20.910Z,100290.74
2024-01-05T19:18:49.427Z,100300.06
2024-01-05T19:21:17.792Z,100295.16
2024-01-05T19:23:45.785Z,100293.75
2024-01-05T19:26:23.814Z,100302.74
2024-01-05T19:28:51.769Z,100306.70
2024-01-05T19:31:21.410Z,100299.44
2024-01-05T19:33:49.543Z,100305.72
2024-01-05T19:36:18.655Z,100298.63
2024-01-05T19:38:49.568Z,100308.07
2024-01-05T19:41:18.871Z,100303.37
2024-01-05T19:43:47.156Z,100295.62
2024-01-05T19:46:16.238Z,100296.56
2024-01-05T19:48:44.830Z,100300.20
2024-01-05T19:51:15.113Z,100298.59
2024-01-05T19:53:43.218Z,100297.97
2024-01-05T19:56:11.182Z,100297.97
2024-01-05T19:58:39.072Z,100302.38
2024-01-05T20:01:07.186Z,100309.64
2024-01-05T20:03:38.135Z,100309.19
2024-01-05T20:06:06.537Z,100308.53
2024-01-05T20:08:34.614Z,100308.23
2024-01-05T20:11:02.669Z,100296.56
2024-01-05T20:13:31.328Z,100293.39
2024-01-05T20:16:02.596Z,100294.02
2024-01-05T20:18:30.795Z,100288.32
2024-01-05T20:20:58.798Z,100291.04
2024-01-05T20:23:27.080Z,100290.58
2024-01-05T20:25:56.439Z,100292.15
2024-01-05T20:28:24.345Z,100277.14
2024-01-05T20:30:52.600Z,100283.29
2024-01-05T20:33:23.038Z,100277.59
2024-01-05T20:35:51.042Z,100280.12
2024-01-05T20:38:21.980Z,100275.24
2024-01-05T20:40:50.020Z,100277.59
2024-01-05T20:43:18.006Z,100279.20
2024-01-05T20:45:49.026Z,100277.43
2024-01-05T20:48:17.157Z,100279.98
2024-01-05T20:50:45.713Z,100287.38
2024-01-05T20:53:13.658Z,100282.96
2024-01-05T20:55:42.648Z,100278.25
2024-01-05T20:58:10.706Z,100283.45
2024-01-05T21:00:38.837Z,100274.95
2024-01-05T21:03:07.414Z,100281.09
2024-01-05T21:05:36.919Z,100282.34
2024-01-05T21:08:11.147Z,100272.73
2024-01-05T21:10:42.262Z,100276.68
2024-01-05T21:13:12.962Z,100279.20
2024-01-05T21:15:40.891Z,100273.84
2024-01-05T21:18:09.532Z,100265.59
2024-01-05T21:20:37.616Z,100264.48
2024-01-05T21:23:06.033Z,100267.66
2024-01-05T21:25:36.695Z,100270.17
2024-01-05T21:28:06.171Z,100273.02
2024-01-05T21:30:37.052Z,100271.45
2024-01-05T21:33:06.133Z,100262.91
2024-01-05T21:35:34.315Z,100268.77
2024-01-05T21:38:02.748Z,100264.84
2024-01-05T21:40:32.177Z,100266.05
2024-01-05T21:43:00.743Z,100264.48
2024-01-05T21:45:28.716Z,100268.77
2024-01-05T21:47:56.765Z,100268.90
2024-01-05T21:50:30.627Z,100264.81
2024-01-05T21:53:01.092Z,100272.10
2024-01-05T21:55:29.070Z,100271.29
2024-01-05T21:58:00.771Z,100269.72
2024-01-05T22:00:30.020Z,100285.97
2024-01-05T22:02:58.025Z,100276.35
2024-01-05T22:05:26.023Z,100272.85
2024-01-05T22:07:59.469Z,100273.67
2024-01-05T22:10:29.346Z,100277.27
2024-01-05T22:12:57.333Z,100271.61
2024-01-05T22:15:26.946Z,100271.61
2024-01-05T22:17:55.705Z,100279.04
2024-01-05T22:20:23.735Z,100278.71
2024-01-05T22:22:52.050Z,100273.34
2024-01-05T22:25:22.414Z,100290.71
2024-01-05T22:27:50.394Z,100287.87
2024-01-05T22:30:18.594Z,100285.18
2024-01-05T22:32:46.829Z,100287.54
2024-01-05T22:35:14.862Z,100284.23
2024-01-05T22:37:43.442Z,100292.77
2024-01-05T22:40:12.889Z,100286.13
2024-01-05T22:42:40.928Z,100291.49
2024-01-05T22:45:09.367Z,100294.50
2024-01-05T22:47:37.529Z,100305.85
2024-01-05T22:50:08.598Z,100300.81
2024-01-05T22:52:36.621Z,100313.47
2024-01-05T22:55:07.124Z,100305.06
2024-01-05T22:57:35.143Z,100308.70
2024-01-05T23:00:05.674Z,100307.91
2024-01-05T23:02:33.685Z,100307.29
2024-01-05T23:05:02.747Z,100314.55
2024-01-05T23:07:33.375Z,100313.30
2024-01-05T23:10:01.585Z,100303.82
2024-01-05T23:12:29.632Z,100303.37
2024-01-05T23:14:57.850Z,100292.77
2024-01-05T23:17:26.010Z,100293.55
2024-01-05T23:19:54.581Z,100292.45
2024-01-05T23:22:27.059Z,100287.38
2024-01-05T23:24:55.252Z,100285.80
2024-01-05T23:27:23.232Z,100295.45
2024-01-05T23:29:53.943Z,100296.23
2024-01-05T23:32:21.942Z,100299.70
2024-01-05T23:34:50.049Z,100297.31
2024-01-05T23:37:18.389Z,100299.87
2024-01-05T23:39:46.334Z,100296.07
2024-01-05T23:42:14.444Z,100303.66
2024-01-05T23:44:42.436Z,100308.53
2024-01-05T23:47:13.144Z,100307.45
2024-01-05T23:49:41.190Z,100311.84
2024-01-05T23:52:09.358Z,100316.58
2024-01-05T23:54:37.461Z,100309.77
2024-01-05T23:57:05.738Z,100308.04
2024-01-05T23:59:36.944Z,100305.06
